Time;durP1;ratioP1;P1;durP2;ratioP2;P2;SDS_P1;SDS_P2;PMS_P1;PMS_P2;Temp;Humidity;BMP_temperature;BMP_pressure;BME280_temperature;BME280_humidity;BME280_pressure;Samples;Min_cycle;Max_cycle;Signal;HPM_P1;HPM_P2
2023/04/11 00:00:26;;;;;;;27.95;25.67;;;;;;;16.40;52.84;100801.34;5034130;28;20037;-70
2023/04/11 00:02:53;;;;;;;28.95;26.35;;;;;;;16.37;52.51;100796.44;5033834;28;20392;-69
2023/04/11 00:05:19;;;;;;;27.67;25.55;;;;;;;16.37;52.77;100796.44;5034716;28;20041;-70
2023/04/11 00:07:44;;;;;;;28.15;26.00;;;;;;;16.35;52.61;100802.16;5034255;28;20099;-70
2023/04/11 00:10:10;;;;;;;26.27;24.88;;;;;;;16.34;52.75;100791.56;5033766;28;20482;-70
2023/04/11 00:12:35;;;;;;;29.35;26.98;;;;;;;16.34;52.55;100789.66;5033896;28;20539;-71
2023/04/11 00:15:01;;;;;;;29.63;27.45;;;;;;;16.32;53.05;100800.00;5034344;28;20064;-70
2023/04/11 00:17:30;;;;;;;27.75;25.88;;;;;;;16.31;52.69;100801.13;5034124;28;20029;-69
2023/04/11 00:19:56;;;;;;;;;;;;;;;16.25;52.90;100802.22;5034135;28;20045;-70
2023/04/11 00:22:22;;;;;;;25.40;23.77;;;;;;;16.26;52.76;100808.50;5016787;28;20318;-70
2023/04/11 00:24:48;;;;;;;27.00;25.08;;;;;;;16.23;52.69;100805.25;5034233;28;20037;-70
2023/04/11 00:27:13;;;;;;;27.20;25.65;;;;;;;16.24;52.94;100797.88;5033789;28;20083;-69
2023/04/11 00:29:39;;;;;;;24.30;23.00;;;;;;;16.21;52.89;100807.41;5033955;28;20068;-70
2023/04/11 00:32:05;;;;;;;31.00;28.83;;;;;;;16.21;52.91;100812.88;5033598;28;20483;-70
2023/04/11 00:34:30;;;;;;;26.65;24.85;;;;;;;16.21;52.85;100809.34;5033505;28;20056;-70
2023/04/11 00:36:56;;;;;;;30.40;28.58;;;;;;;16.21;53.11;100809.34;5033583;28;20081;-69
2023/04/11 00:39:21;;;;;;;26.85;25.00;;;;;;;16.20;52.82;100816.69;5032459;28;20064;-70
2023/04/11 00:41:47;;;;;;;27.45;25.75;;;;;;;16.19;52.88;100816.97;5033654;28;20037;-70
2023/04/11 00:44:13;;;;;;;27.38;25.98;;;;;;;16.17;53.02;100814.50;5033425;28;20454;-70
2023/04/11 00:46:41;;;;;;;28.25;26.08;;;;;;;16.17;52.65;100816.44;5033580;28;20030;-69
2023/04/11 00:49:07;;;;;;;26.83;24.83;;;;;;;16.15;52.81;100811.28;5033713;28;20029;-68
2023/04/11 00:51:33;;;;;;;27.15;25.23;;;;;;;16.15;52.86;100816.72;5033419;28;20144;-69
2023/04/11 00:54:00;;;;;;;29.20;27.33;;;;;;;16.14;52.62;100815.06;5032804;28;20032;-69
2023/04/11 00:56:26;;;;;;;25.75;24.23;;;;;;;16.14;52.53;100817.00;5033642;28;20036;-69
2023/04/11 00:58:51;;;;;;;29.38;26.90;;;;;;;16.13;52.45;100818.09;5032332;28;20417;-70
2023/04/11 01:01:18;;;;;;;27.40;25.63;;;;;;;16.13;52.89;100809.91;5033555;28;20029;-70
2023/04/11 01:03:44;;;;;;;26.85;24.88;;;;;;;16.11;52.71;100810.19;5033254;28;20037;-70
2023/04/11 01:06:13;;;;;;;29.05;27.27;;;;;;;16.10;52.40;100808.56;5032993;28;20124;-69
2023/04/11 01:08:40;;;;;;;27.40;25.45;;;;;;;16.08;52.40;100808.03;5033221;28;20108;-70
2023/04/11 01:11:07;;;;;;;26.83;25.15;;;;;;;16.07;52.90;100813.75;5033118;28;20526;-69
2023/04/11 01:13:38;;;;;;;27.83;25.17;;;;;;;16.07;52.46;100802.84;5032791;28;20442;-69
2023/04/11 01:16:04;;;;;;;29.17;27.50;;;;;;;16.06;52.44;100796.59;5033205;28;20108;-69
2023/04/11 01:18:29;;;;;;;26.80;24.55;;;;;;;16.06;52.57;100810.22;5033399;28;20121;-69
2023/04/11 01:20:55;;;;;;;29.75;26.23;;;;;;;16.05;52.75;100807.75;5032695;28;20044;-70
2023/04/11 01:23:23;;;;;;;27.48;25.25;;;;;;;16.05;52.70;100803.13;5033231;28;20042;-69
2023/04/11 01:25:49;;;;;;;30.25;26.92;;;;;;;16.02;52.57;100803.66;5033665;28;20034;-69
2023/04/11 01:28:14;;;;;;;26.42;24.80;;;;;;;16.00;52.90;100803.13;5032705;28;20037;-69
2023/04/11 01:30:39;;;;;;;27.48;25.33;;;;;;;15.99;52.74;100812.41;5033146;28;20125;-71
2023/04/11 01:33:05;;;;;;;27.83;25.95;;;;;;;15.97;52.68;100818.13;5032525;28;20053;-69
2023/04/11 01:35:31;;;;;;;29.10;26.45;;;;;;;15.96;52.45;100816.50;5031820;28;20041;-69
2023/04/11 01:37:57;;;;;;;26.83;25.05;;;;;;;15.96;52.56;100821.13;5033183;28;20076;-69
2023/04/11 01:40:23;;;;;;;26.77;24.98;;;;;;;15.95;52.80;100824.94;5032936;28;20040;-70
2023/04/11 01:42:49;;;;;;;25.65;24.38;;;;;;;15.92;52.37;100828.22;5031997;28;20420;-70
2023/04/11 01:45:16;;;;;;;26.13;24.40;;;;;;;15.91;52.43;100830.13;5031971;28;20528;-70
2023/04/11 01:47:41;;;;;;;25.73;24.27;;;;;;;15.90;52.49;100839.41;5033186;28;20051;-70
2023/04/11 01:50:07;;;;;;;27.50;25.63;;;;;;;15.89;52.45;100829.59;5031898;28;20465;-70
2023/04/11 01:52:32;;;;;;;27.23;25.50;;;;;;;15.87;52.62;100826.31;5032751;28;20438;-70
2023/04/11 01:54:58;;;;;;;29.00;27.27;;;;;;;15.88;52.66;100838.06;5032447;28;20120;-70
2023/04/11 01:57:23;;;;;;;27.58;25.02;;;;;;;15.84;52.90;100835.03;5033059;28;20462;-69
2023/04/11 01:59:49;;;;;;;26.38;24.77;;;;;;;15.84;52.86;100839.69;5032796;28;20037;-69
2023/04/11 02:02:14;;;;;;;27.92;25.98;;;;;;;15.81;52.79;100832.06;5032694;28;20428;-70
2023/04/11 02:04:39;;;;;;;26.83;24.77;;;;;;;15.78;52.60;100842.41;5031495;28;20033;-70
2023/04/11 02:07:08;;;;;;;26.13;24.52;;;;;;;15.77;52.52;100842.69;5017538;28;20033;-69
2023/04/11 02:09:33;;;;;;;24.30;22.90;;;;;;;15.77;52.50;100845.41;5036236;28;20052;-69
2023/04/11 02:11:59;;;;;;;25.77;23.95;;;;;;;15.75;52.40;100848.41;5036163;28;20476;-71
2023/04/11 02:14:25;;;;;;;25.88;24.27;;;;;;;15.75;52.44;100861.22;5036079;28;20037;-71
2023/04/11 02:16:55;;;;;;;26.92;24.95;;;;;;;15.74;52.54;100862.31;5036070;28;20043;-71
2023/04/11 02:19:22;;;;;;;25.38;24.08;;;;;;;15.72;52.65;100859.88;5035942;28;20104;-71
2023/04/11 02:21:48;;;;;;;27.10;24.65;;;;;;;15.71;52.41;100865.56;5036034;28;20462;-71
2023/04/11 02:24:14;;;;;;;25.73;23.90;;;;;;;15.70;52.49;100863.94;5034381;28;20039;-69
2023/04/11 02:26:42;;;;;;;28.40;25.33;;;;;;;15.69;52.57;100865.84;5035883;28;20030;-69
2023/04/11 02:29:08;;;;;;;27.65;25.75;;;;;;;15.67;52.43;100867.97;5036174;28;20564;-71
2023/04/11 02:31:33;;;;;;;26.88;24.65;;;;;;;15.67;52.66;100872.63;5034296;28;20112;-69
2023/04/11 02:33:59;;;;;;;25.35;23.60;;;;;;;15.66;52.63;100866.38;5034568;28;20092;-70
2023/04/11 02:36:27;;;;;;;24.20;22.50;;;;;;;15.65;52.29;100867.47;5036305;28;20034;-69
2023/04/11 02:38:52;;;;;;;23.77;22.43;;;;;;;15.63;52.56;100863.38;5035481;28;20538;-70
2023/04/11 02:41:18;;;;;;;27.05;24.92;;;;;;;15.62;52.73;100867.19;5034484;28;20375;-70
2023/04/11 02:43:44;;;;;;;23.20;21.90;;;;;;;15.60;52.50;100864.75;5035168;28;20477;-69
2023/04/11 02:46:09;;;;;;;25.85;24.05;;;;;;;15.61;52.72;100871.00;5035104;28;20433;-71
2023/04/11 02:48:34;;;;;;;25.40;24.00;;;;;;;15.58;52.48;100872.38;5035225;28;20037;-71
2023/04/11 02:51:00;;;;;;;24.63;23.13;;;;;;;15.56;52.81;100867.19;5035496;28;20041;-71
2023/04/11 02:53:25;;;;;;;24.50;22.90;;;;;;;15.56;52.75;100874.53;5034209;28;20402;-71
2023/04/11 02:55:51;;;;;;;26.23;23.80;;;;;;;15.54;52.42;100872.06;5035168;28;20036;-71
2023/04/11 02:58:18;;;;;;;26.33;24.95;;;;;;;15.51;52.67;100875.34;5035603;28;20541;-71
2023/04/11 03:00:44;;;;;;;25.10;23.20;;;;;;;15.50;52.75;100881.09;5035299;28;20099;-71
2023/04/11 03:03:10;;;;;;;27.70;25.77;;;;;;;15.47;52.71;100877.00;5035254;28;20450;-71
2023/04/11 03:05:36;;;;;;;25.60;24.02;;;;;;;15.48;52.51;100877.81;5036045;28;20069;-71
2023/04/11 03:08:02;;;;;;;26.27;24.42;;;;;;;15.44;52.40;100877.53;5034328;28;20541;-71
2023/04/11 03:10:27;;;;;;;24.80;23.23;;;;;;;15.45;52.40;100884.63;5034793;28;20087;-71
2023/04/11 03:12:53;;;;;;;22.92;21.73;;;;;;;15.46;52.43;100890.88;5034146;28;20462;-71
2023/04/11 03:15:18;;;;;;;28.15;26.27;;;;;;;15.44;52.60;100890.31;5035059;28;20026;-71
2023/04/11 03:17:43;;;;;;;25.42;23.70;;;;;;;15.44;52.60;100895.75;5034683;28;20390;-71
2023/04/11 03:20:12;;;;;;;25.52;24.08;;;;;;;15.43;52.55;100899.59;5034866;28;20065;-70
2023/04/11 03:22:38;;;;;;;23.00;21.67;;;;;;;15.41;52.58;100893.59;5035203;28;20029;-71
2023/04/11 03:25:05;;;;;;;26.67;24.20;;;;;;;15.39;52.42;100902.03;5035663;28;20048;-71
2023/04/11 03:27:30;;;;;;;23.80;22.60;;;;;;;15.36;52.45;100908.00;5033291;28;20124;-70
2023/04/11 03:29:56;;;;;;;26.30;24.50;;;;;;;15.35;52.70;100900.94;5035097;28;20446;-71
2023/04/11 03:32:21;;;;;;;25.85;24.25;;;;;;;15.34;52.38;100904.75;5034618;28;20034;-70
2023/04/11 03:34:47;;;;;;;22.48;21.17;;;;;;;15.34;52.39;100912.91;5034803;28;20049;-71
2023/04/11 03:37:12;;;;;;;24.77;23.35;;;;;;;15.32;52.29;100917.78;5034631;28;20081;-71
2023/04/11 03:39:37;;;;;;;23.60;22.30;;;;;;;15.30;52.65;100907.19;5034585;28;20464;-71
2023/04/11 03:42:03;;;;;;;25.55;23.90;;;;;;;15.30;52.70;100914.56;5034504;28;20030;-71
2023/04/11 03:44:28;;;;;;;22.63;21.50;;;;;;;15.29;52.46;100919.16;5034782;28;20465;-70
2023/04/11 03:46:54;;;;;;;23.48;22.08;;;;;;;15.28;52.37;100920.25;5036815;28;20376;-71
2023/04/11 03:49:19;;;;;;;23.95;22.63;;;;;;;15.26;52.29;100916.16;5033567;28;20033;-70
2023/04/11 03:51:44;;;;;;;23.75;22.35;;;;;;;15.24;52.56;100923.78;5033376;28;20475;-71
2023/04/11 03:54:10;;;;;;;23.75;22.55;;;;;;;15.22;52.41;100932.22;5034355;28;20087;-72
2023/04/11 03:56:35;;;;;;;24.00;22.60;;;;;;;15.22;52.64;100926.78;5034043;28;20033;-71
2023/04/11 03:59:01;;;;;;;23.02;21.73;;;;;;;15.21;52.21;100933.28;5034847;28;20520;-70
2023/04/11 04:01:26;;;;;;;22.90;21.70;;;;;;;15.20;52.49;100922.69;5034146;28;20061;-71
2023/04/11 04:03:51;;;;;;;23.58;22.15;;;;;;;15.18;52.46;100936.56;5034121;28;20432;-70
2023/04/11 04:06:17;;;;;;;24.17;22.77;;;;;;;15.18;52.37;100938.47;5034108;28;20462;-70
2023/04/11 04:08:42;;;;;;;23.42;22.23;;;;;;;15.18;52.23;100943.91;5034597;28;20033;-70
2023/04/11 04:11:07;;;;;;;24.45;23.05;;;;;;;15.17;52.53;100934.94;5034072;28;20381;-70
2023/04/11 04:13:33;;;;;;;22.17;20.60;;;;;;;15.14;52.60;100933.56;5034291;28;20029;-70
2023/04/11 04:15:58;;;;;;;24.17;22.77;;;;;;;15.12;52.45;100943.91;5032417;28;20446;-70
2023/04/11 04:18:24;;;;;;;23.75;22.35;;;;;;;15.12;52.43;100945.81;5032716;28;20037;-70
2023/04/11 04:20:49;;;;;;;24.15;22.42;;;;;;;15.12;52.21;100945.81;5033332;28;20040;-70
2023/04/11 04:23:16;;;;;;;24.27;23.02;;;;;;;15.10;52.42;100950.69;5033754;28;20095;-70
2023/04/11 04:25:46;;;;;;;24.90;23.17;;;;;;;15.10;52.53;100953.41;5033405;28;20397;-70
2023/04/11 04:28:11;;;;;;;24.92;22.63;;;;;;;15.09;52.26;100958.03;5032860;28;20033;-70
2023/04/11 04:30:37;;;;;;;24.80;22.90;;;;;;;15.09;52.50;100960.75;5033982;28;20037;-70
2023/04/11 04:33:02;;;;;;;23.55;22.15;;;;;;;15.07;52.48;100967.56;5033902;28;20061;-70
2023/04/11 04:35:28;;;;;;;22.55;21.25;;;;;;;15.06;52.52;100972.16;5033807;28;20040;-70
2023/04/11 04:37:53;;;;;;;23.83;22.63;;;;;;;15.05;52.19;100967.81;5033393;28;20165;-70
2023/04/11 04:40:19;;;;;;;25.08;23.13;;;;;;;15.02;52.37;100968.34;5032337;28;20462;-70
2023/04/11 04:42:48;;;;;;;24.60;22.95;;;;;;;15.02;52.26;100975.66;5032398;28;20136;-70
2023/04/11 04:45:14;;;;;;;23.50;22.20;;;;;;;15.01;52.49;100984.94;5033450;28;20087;-69
2023/04/11 04:47:40;;;;;;;23.15;21.83;;;;;;;14.98;52.51;100989.00;5033472;28;20095;-69
2023/04/11 04:50:06;;;;;;;23.35;21.88;;;;;;;14.98;52.61;100988.19;5033450;28;20041;-69
2023/04/11 04:52:32;;;;;;;24.20;22.40;;;;;;;14.98;52.34;100994.44;5033887;28;20037;-69
2023/04/11 04:54:57;;;;;;;23.90;22.50;;;;;;;14.97;52.45;101000.13;5033151;28;20032;-69
2023/04/11 04:57:24;;;;;;;24.70;23.20;;;;;;;14.97;52.27;101000.97;5033327;28;20060;-69
2023/04/11 04:59:49;;;;;;;24.58;22.08;;;;;;;14.96;52.31;100999.31;5033104;28;20029;-69
2023/04/11 05:02:16;;;;;;;24.48;22.92;;;;;;;14.95;52.54;101002.31;5033223;28;20474;-69
2023/04/11 05:04:43;;;;;;;22.58;21.38;;;;;;;14.93;52.25;101002.59;5033450;28;20578;-68
2023/04/11 05:07:09;;;;;;;26.33;24.23;;;;;;;14.92;52.23;101001.78;5033234;28;20036;-68
2023/04/11 05:09:35;;;;;;;25.10;23.25;;;;;;;14.90;52.21;100998.50;5032735;28;20032;-68
2023/04/11 05:12:01;;;;;;;23.67;22.13;;;;;;;14.90;52.26;101009.38;5032998;28;20400;-69
2023/04/11 05:14:26;;;;;;;23.52;22.15;;;;;;;14.89;52.19;101015.91;5033215;28;20033;-69
2023/04/11 05:16:51;;;;;;;24.95;23.15;;;;;;;14.89;52.43;101012.34;5033213;28;20025;-69
2023/04/11 05:19:17;;;;;;;22.77;21.42;;;;;;;14.86;52.08;101004.72;5033525;28;20094;-69
2023/04/11 05:21:42;;;;;;;23.83;22.45;;;;;;;14.86;52.43;101015.59;5031775;28;20029;-70
2023/04/11 05:24:07;;;;;;;23.73;22.05;;;;;;;14.84;52.44;101020.47;5033237;28;20034;-69
2023/04/11 05:26:33;;;;;;;24.02;22.73;;;;;;;14.83;52.22;101029.72;5033032;28;20041;-69
2023/04/11 05:28:59;;;;;;;24.70;23.40;;;;;;;14.82;52.24;101028.91;5033635;28;20520;-69
2023/04/11 05:31:25;;;;;;;25.38;23.98;;;;;;;14.80;52.39;101025.63;5033354;28;20048;-69
2023/04/11 05:33:51;;;;;;;22.02;20.83;;;;;;;14.80;52.32;101027.53;5031440;28;20054;-69
2023/04/11 05:36:16;;;;;;;25.52;23.85;;;;;;;14.79;52.34;101031.34;5032781;28;20068;-69
2023/04/11 05:38:43;;;;;;;22.60;21.33;;;;;;;14.76;52.48;101035.41;5032910;28;20084;-69
2023/04/11 05:41:09;;;;;;;22.42;21.25;;;;;;;14.75;52.40;101044.66;5036168;28;20034;-70
2023/04/11 05:43:36;;;;;;;24.35;22.92;;;;;;;14.76;52.38;101042.75;5036375;28;20424;-69
2023/04/11 05:46:02;;;;;;;23.00;21.90;;;;;;;14.75;52.34;101052.00;5036772;28;20033;-70
2023/04/11 05:48:27;;;;;;;25.63;24.05;;;;;;;14.73;52.44;101057.69;5037007;28;20037;-71
2023/04/11 05:50:53;;;;;;;23.60;22.25;;;;;;;14.71;52.20;101059.84;5036698;28;20029;-69
2023/04/11 05:53:18;;;;;;;22.60;21.30;;;;;;;14.69;52.19;101064.72;5036566;28;20107;-69
2023/04/11 05:55:44;;;;;;;22.67;21.48;;;;;;;14.69;52.31;101070.16;5037020;28;20045;-69
2023/04/11 05:58:09;;;;;;;22.70;21.50;;;;;;;14.67;52.36;101072.34;5036400;28;20053;-72
2023/04/11 06:00:37;;;;;;;25.58;24.17;;;;;;;14.64;52.30;101070.13;5036376;28;20033;-68
2023/04/11 06:03:03;;;;;;;23.05;21.85;;;;;;;14.65;52.27;101069.88;5037135;28;20095;-68
2023/04/11 06:05:30;;;;;;;24.27;22.98;;;;;;;14.63;52.15;101071.22;5051808;28;20363;-68
2023/04/11 06:07:57;;;;;;;24.52;23.00;;;;;;;14.63;52.41;101076.66;5037108;28;20376;-69
2023/04/11 06:10:23;;;;;;;22.52;21.38;;;;;;;14.64;52.16;101081.00;5036209;28;20057;-71
2023/04/11 06:12:52;;;;;;;23.25;21.75;;;;;;;14.62;51.95;101078.56;5036158;28;20077;-69
2023/04/11 06:15:17;;;;;;;22.67;21.48;;;;;;;14.60;52.26;101086.16;5036461;28;20424;-69
2023/04/11 06:17:51;;;;;;;22.38;21.05;;;;;;;14.59;52.40;101081.81;5036065;28;20429;-69
2023/04/11 06:20:18;;;;;;;22.67;21.27;;;;;;;14.58;52.30;101087.50;5035653;28;20041;-69
2023/04/11 06:22:45;;;;;;;24.33;22.67;;;;;;;14.59;52.17;101094.56;5036045;28;20052;-69
2023/04/11 06:25:11;;;;;;;23.60;22.17;;;;;;;14.60;52.01;101088.06;5036067;28;20108;-69
2023/04/11 06:27:36;;;;;;;23.50;22.20;;;;;;;14.59;52.10;101095.41;5036216;28;20117;-69
2023/04/11 06:30:01;;;;;;;23.15;22.05;;;;;;;14.59;52.13;101100.00;5036462;28;20477;-68
2023/04/11 06:32:28;;;;;;;23.15;21.52;;;;;;;14.59;52.20;101097.28;5035853;28;20483;-68
2023/04/11 06:34:53;;;;;;;22.95;21.63;;;;;;;14.59;52.16;101102.72;5036395;28;20056;-68
2023/04/11 06:37:20;;;;;;;23.88;22.38;;;;;;;14.60;52.21;101102.47;5036027;28;20394;-69
2023/04/11 06:39:45;;;;;;;23.67;22.35;;;;;;;14.59;52.42;101109.00;5036409;28;20033;-68
2023/04/11 06:42:10;;;;;;;22.73;21.33;;;;;;;14.59;52.15;101111.72;5034041;28;20500;-69
2023/04/11 06:44:36;;;;;;;26.77;24.35;;;;;;;14.59;52.30;101109.00;5018441;28;20084;-68
2023/04/11 06:47:02;;;;;;;24.63;22.98;;;;;;;14.60;52.27;101120.69;5035827;28;20113;-68
2023/04/11 06:49:27;;;;;;;25.95;24.10;;;;;;;14.53;52.45;101110.00;5035133;28;20026;-70
2023/04/11 06:51:54;;;;;;;23.27;21.83;;;;;;;14.55;52.48;101112.47;5034381;28;20065;-68
2023/04/11 06:54:20;;;;;;;22.15;20.75;;;;;;;14.55;52.33;101113.28;5035397;28;20032;-69
2023/04/11 06:56:46;;;;;;;24.00;22.50;;;;;;;14.56;52.29;101124.97;5034998;28;20034;-69
2023/04/11 06:59:12;;;;;;;22.67;21.38;;;;;;;14.54;52.45;101125.25;5035003;28;20099;-69
2023/04/11 07:01:38;;;;;;;24.83;22.95;;;;;;;14.55;52.44;101126.88;5035139;28;20033;-69
2023/04/11 07:04:04;;;;;;;23.15;21.95;;;;;;;14.55;52.42;101135.03;5035174;28;20029;-69
2023/04/11 07:06:30;;;;;;;22.85;21.27;;;;;;;14.51;52.23;101128.44;5034730;28;20030;-70
2023/04/11 07:08:56;;;;;;;24.67;23.27;;;;;;;14.50;52.44;101134.97;5034830;28;20063;-69
2023/04/11 07:11:22;;;;;;;23.48;22.25;;;;;;;14.53;52.25;101139.91;5034798;28;20038;-69
2023/04/11 07:13:49;;;;;;;23.65;22.00;;;;;;;14.54;52.40;101140.72;5033402;28;20044;-69
2023/04/11 07:16:14;;;;;;;22.20;20.88;;;;;;;14.55;52.51;101142.38;5035342;28;20445;-69
2023/04/11 07:18:40;;;;;;;24.02;22.52;;;;;;;14.56;52.31;101158.41;5034768;28;20037;-69
2023/04/11 07:21:05;;;;;;;22.60;20.90;;;;;;;14.56;52.27;101149.44;5034882;28;20136;-69
2023/04/11 07:23:31;;;;;;;24.15;22.63;;;;;;;14.58;52.38;101158.16;5034622;28;20033;-69
2023/04/11 07:25:57;;;;;;;21.92;20.63;;;;;;;14.58;52.27;101145.38;5034323;28;20072;-69
2023/04/11 07:28:23;;;;;;;22.33;21.00;;;;;;;14.57;52.43;101146.47;5034308;28;20071;-68
2023/04/11 07:30:48;;;;;;;25.33;23.40;;;;;;;14.60;52.02;101169.63;5034701;28;20034;-69
2023/04/11 07:33:13;;;;;;;23.73;22.05;;;;;;;14.58;52.34;101155.44;5034206;28;20136;-69
2023/04/11 07:35:39;;;;;;;24.05;22.63;;;;;;;14.59;52.24;101159.81;5034617;28;20033;-69
2023/04/11 07:38:05;;;;;;;23.83;22.40;;;;;;;14.61;52.24;101155.75;5034454;28;20083;-69
2023/04/11 07:40:31;;;;;;;22.95;21.65;;;;;;;14.65;52.08;101156.06;5034273;28;20037;-69
2023/04/11 07:42:56;;;;;;;22.85;21.40;;;;;;;14.64;52.35;101163.41;5034848;28;20042;-70
2023/04/11 07:45:21;;;;;;;22.38;21.05;;;;;;;14.66;52.34;101161.22;5034466;28;20072;-68
2023/04/11 07:47:48;;;;;;;24.02;22.63;;;;;;;14.68;52.34;101158.25;5034832;28;20039;-68
2023/04/11 07:50:13;;;;;;;23.95;22.30;;;;;;;14.68;52.38;101169.94;5034576;28;20052;-68
2023/04/11 07:52:39;;;;;;;24.90;23.17;;;;;;;14.67;52.21;101165.59;5034193;28;20355;-68
2023/04/11 07:55:05;;;;;;;23.50;22.20;;;;;;;14.70;52.32;101173.22;5034100;28;20042;-68
2023/04/11 07:57:30;;;;;;;23.45;21.67;;;;;;;14.70;52.61;101167.78;5034213;28;20445;-68
2023/04/11 07:59:59;;;;;;;24.15;22.70;;;;;;;14.75;52.33;101177.06;5033978;28;20533;-68
2023/04/11 08:02:24;;;;;;;24.40;22.48;;;;;;;14.76;52.82;101178.72;5033919;28;20026;-68
2023/04/11 08:04:50;;;;;;;24.42;22.88;;;;;;;14.79;52.49;101186.34;5033978;28;20060;-68
2023/04/11 08:07:16;;;;;;;23.02;21.83;;;;;;;14.82;52.29;101192.09;5033975;28;20497;-69
2023/04/11 08:09:41;;;;;;;25.10;23.13;;;;;;;14.84;52.49;101205.41;5033750;28;20026;-68
2023/04/11 08:12:07;;;;;;;23.75;22.08;;;;;;;14.84;52.57;101194.53;5034347;28;20038;-68
2023/04/11 08:14:33;;;;;;;22.75;21.48;;;;;;;14.87;52.77;101189.41;5034358;28;20034;-68
2023/04/11 08:16:58;;;;;;;24.75;23.42;;;;;;;14.91;52.48;101195.94;5033594;28;20488;-69
2023/04/11 08:19:24;;;;;;;25.08;23.42;;;;;;;14.95;52.46;101206.34;5033750;28;20035;-69
2023/04/11 08:21:49;;;;;;;25.05;23.55;;;;;;;14.97;52.85;101196.00;5032129;28;20108;-67
2023/04/11 08:24:15;;;;;;;22.75;21.30;;;;;;;14.99;52.73;101210.97;5032418;28;20037;-69
2023/04/11 08:26:40;;;;;;;23.80;22.17;;;;;;;15.03;52.76;101208.56;5033845;28;20166;-69
2023/04/11 08:29:09;;;;;;;22.83;21.52;;;;;;;15.06;52.84;101208.03;5032019;28;20084;-68
2023/04/11 08:31:35;;;;;;;22.77;21.48;;;;;;;15.08;52.91;101209.41;5033800;28;20043;-70
2023/04/11 08:34:02;;;;;;;23.80;21.95;;;;;;;15.13;52.72;101223.06;5033496;28;20123;-69
2023/04/11 08:36:28;;;;;;;24.75;23.13;;;;;;;15.18;52.94;101226.91;5033645;28;20481;-69
2023/04/11 08:38:55;;;;;;;25.33;23.63;;;;;;;15.18;53.09;101219.56;5033093;28;20025;-69
2023/04/11 08:41:21;;;;;;;24.95;23.30;;;;;;;15.20;52.91;101236.44;5033279;28;20442;-69
2023/04/11 08:43:47;;;;;;;23.67;22.38;;;;;;;15.26;52.88;101226.41;5033865;28;20121;-68
2023/04/11 08:46:12;;;;;;;23.55;22.25;;;;;;;15.30;52.80;101225.63;5032388;28;20084;-69
2023/04/11 08:48:38;;;;;;;23.90;22.60;;;;;;;15.36;52.85;101221.03;5033330;28;20411;-67
2023/04/11 08:51:04;;;;;;;24.25;22.98;;;;;;;15.40;52.63;101218.63;5032448;28;20033;-68
2023/04/11 08:53:30;;;;;;;23.25;22.13;;;;;;;15.42;52.77;101216.44;5033032;28;20037;-68
2023/04/11 08:55:56;;;;;;;25.83;24.35;;;;;;;15.46;52.49;101225.72;5033795;28;20045;-69
2023/04/11 08:58:21;;;;;;;26.70;24.52;;;;;;;15.49;52.63;101212.38;5033711;28;20041;-68
2023/04/11 09:00:47;;;;;;;24.40;23.10;;;;;;;15.51;52.51;101218.38;5032424;28;20029;-69
2023/04/11 09:03:15;;;;;;;23.60;22.35;;;;;;;15.55;52.38;101219.50;5033474;28;20512;-69
2023/04/11 09:05:43;;;;;;;24.63;23.25;;;;;;;15.61;52.67;101222.25;5031894;28;20373;-68
2023/04/11 09:08:11;;;;;;;25.03;23.73;;;;;;;15.63;52.71;101209.22;5032201;28;20032;-68
2023/04/11 09:10:38;;;;;;;24.55;23.25;;;;;;;15.63;53.00;101226.34;5033134;28;20034;-68
2023/04/11 09:13:22;;;;;;;25.70;23.95;;;;;;;15.65;52.82;101226.06;5032350;28;20026;-68
2023/04/11 09:16:03;;;;;;;25.05;23.77;;;;;;;15.66;53.33;101228.53;5035199;28;20025;-68
2023/04/11 09:18:32;;;;;;;25.13;23.33;;;;;;;15.74;52.94;101236.25;5036134;28;20372;-68
2023/04/11 09:21:00;;;;;;;27.20;25.70;;;;;;;15.77;52.68;101243.06;5037762;28;20026;-68
2023/04/11 09:23:26;;;;;;;24.85;23.65;;;;;;;15.78;53.31;101240.06;5037027;28;20467;-68
2023/04/11 09:25:51;;;;;;;27.33;25.90;;;;;;;15.84;52.88;101238.19;5037384;28;20037;-67
2023/04/11 09:28:17;;;;;;;25.90;24.60;;;;;;;15.87;53.41;101251.28;5036728;28;20064;-68
2023/04/11 09:30:54;;;;;;;25.08;23.77;;;;;;;15.91;53.11;101249.66;5037021;28;20084;-68
2023/04/11 09:33:23;;;;;;;25.20;23.80;;;;;;;15.94;52.82;101242.88;5036760;28;20050;-68
2023/04/11 09:35:54;;;;;;;23.77;22.52;;;;;;;15.97;52.61;101232.25;5036164;28;20045;-69
2023/04/11 09:38:30;;;;;;;25.98;24.60;;;;;;;16.00;52.58;101248.09;5037146;28;20079;-69
2023/04/11 09:40:57;;;;;;;27.65;26.15;;;;;;;16.05;52.53;101255.47;5036725;28;20439;-69
2023/04/11 09:43:22;;;;;;;24.80;23.50;;;;;;;16.04;52.48;101258.44;5036388;28;20033;-70
2023/04/11 09:45:49;;;;;;;24.67;23.15;;;;;;;16.10;52.64;101265.53;5036217;28;20075;-69
2023/04/11 09:48:15;;;;;;;25.30;23.85;;;;;;;16.13;52.67;101271.28;5036823;28;20055;-69
2023/04/11 09:50:41;;;;;;;26.95;25.10;;;;;;;16.17;52.81;101261.47;5036050;28;20183;-69
2023/04/11 09:53:09;;;;;;;27.02;25.05;;;;;;;16.19;52.64;101266.66;5036108;28;20116;-69
2023/04/11 09:55:38;;;;;;;24.55;23.27;;;;;;;16.23;52.91;101259.59;5036262;28;20029;-69
2023/04/11 09:58:05;;;;;;;27.88;26.00;;;;;;;16.28;52.65;101256.91;5036105;28;20029;-70
2023/04/11 10:00:31;;;;;;;28.85;26.90;;;;;;;16.32;52.79;101263.44;5036125;28;20056;-69
2023/04/11 10:02:57;;;;;;;30.33;28.17;;;;;;;16.36;52.82;101261.00;5036034;28;20481;-69
2023/04/11 10:05:28;;;;;;;25.67;24.38;;;;;;;16.37;52.64;101249.00;5035814;28;20390;-69
2023/04/11 10:08:32;;;;;;;26.80;25.15;;;;;;;16.38;52.94;101265.09;5036736;28;20111;-70
2023/04/11 10:11:07;;;;;;;26.85;25.25;;;;;;;16.43;52.60;101254.22;5035971;28;20025;-70
2023/04/11 10:13:43;;;;;;;25.08;23.77;;;;;;;16.48;52.86;101256.13;5036242;28;20037;-70
2023/04/11 10:16:17;;;;;;;27.95;26.02;;;;;;;16.51;52.62;101254.78;5036310;28;20106;-69
2023/04/11 10:18:55;;;;;;;25.80;24.10;;;;;;;16.55;52.42;101253.13;5035746;28;20025;-69
2023/04/11 10:21:29;;;;;;;26.90;25.42;;;;;;;16.52;52.74;101253.66;5035394;28;20037;-68
2023/04/11 10:24:08;;;;;;;27.33;25.55;;;;;;;16.57;52.79;101256.41;5035368;28;20037;-69
2023/04/11 10:26:47;;;;;;;24.88;23.65;;;;;;;16.62;52.87;101250.97;5034265;28;20029;-70
2023/04/11 10:29:39;;;;;;;28.83;27.23;;;;;;;16.65;52.69;101255.88;5033908;28;20037;-69
2023/04/11 10:32:14;;;;;;;28.15;26.55;;;;;;;16.69;52.52;101251.50;5036304;28;20033;-70
2023/04/11 10:35:00;;;;;;;28.50;26.65;;;;;;;16.70;52.69;101246.88;5035806;28;20535;-70
2023/04/11 10:37:28;;;;;;;28.15;26.48;;;;;;;16.74;52.47;101237.88;5033810;28;20065;-70
2023/04/11 10:39:54;;;;;;;26.00;24.40;;;;;;;16.78;52.81;101249.09;5035712;28;20117;-73
2023/04/11 10:42:30;;;;;;;27.75;26.27;;;;;;;16.80;52.69;101250.44;5035337;28;20124;-69
2023/04/11 10:45:27;;;;;;;28.52;26.80;;;;;;;16.83;52.68;101262.72;5035300;28;20036;-70
2023/04/11 10:47:56;;;;;;;27.42;25.95;;;;;;;16.86;52.42;101256.75;5035220;28;20021;-70
2023/04/11 10:50:24;;;;;;;26.42;24.83;;;;;;;16.88;52.50;101262.72;5035531;28;20044;-69
2023/04/11 10:52:50;;;;;;;26.63;25.25;;;;;;;16.89;52.14;101250.75;5035551;28;20068;-69
2023/04/11 10:55:17;;;;;;;27.60;25.90;;;;;;;16.91;52.47;101256.75;5034993;28;20481;-70
2023/04/11 10:58:08;;;;;;;27.40;26.00;;;;;;;16.91;51.99;101248.56;5035366;28;20060;-69
2023/04/11 11:00:45;;;;;;;27.02;25.60;;;;;;;16.93;51.90;101245.53;5035072;28;20088;-70
2023/04/11 11:03:22;;;;;;;29.48;27.88;;;;;;;16.95;52.20;101248.81;5034916;28;20033;-69
2023/04/11 11:05:57;;;;;;;27.77;26.27;;;;;;;16.99;52.23;101250.75;5035265;28;20433;-70
2023/04/11 11:08:29;;;;;;;26.95;25.55;;;;;;;17.02;51.92;101252.09;5034957;28;20033;-69